createdAt,value
2023-03-12T00:00:12.021Z,1.13
2023-03-12T00:02:39.822Z,2.50
2023-03-12T00:05:08.132Z,1.37
2023-03-12T00:07:36.703Z,1.40
2023-03-12T00:10:07.264Z,1.30
2023-03-12T00:12:35.045Z,1.27
2023-03-12T00:15:02.988Z,1.97
2023-03-12T00:17:30.572Z,1.50
2023-03-12T00:19:58.488Z,1.87
2023-03-12T00:22:26.359Z,1.83
2023-03-12T00:24:55.839Z,1.43
2023-03-12T00:27:24.670Z,1.10
2023-03-12T00:29:52.254Z,1.53
2023-03-12T00:32:20.707Z,1.77
2023-03-12T00:34:52.536Z,1.47
2023-03-12T00:37:20.764Z,1.02
2023-03-12T00:39:48.626Z,1.77
2023-03-12T00:42:16.747Z,0.80
2023-03-12T00:44:44.669Z,1.20
2023-03-12T00:47:13.730Z,1.40
2023-03-12T00:49:41.388Z,1.53
2023-03-12T00:52:09.271Z,1.30
2023-03-12T00:54:36.879Z,1.47
2023-03-12T00:57:04.971Z,2.03
2023-03-12T00:59:34.260Z,1.43
2023-03-12T01:02:01.946Z,0.60
2023-03-12T01:04:29.662Z,1.23
2023-03-12T01:06:57.309Z,1.60
2023-03-12T01:09:24.889Z,1.40
2023-03-12T01:11:52.538Z,1.40
2023-03-12T01:14:20.171Z,1.57
2023-03-12T01:16:49.846Z,1.53
2023-03-12T01:19:19.399Z,2.03
2023-03-12T01:21:47.116Z,1.20
2023-03-12T01:24:14.800Z,1.17
2023-03-12T01:26:42.802Z,1.50
2023-03-12T01:29:10.475Z,1.33
2023-03-12T01:31:38.591Z,1.50
2023-03-12T01:34:06.205Z,1.90
2023-03-12T01:36:33.820Z,1.10
2023-03-12T01:39:01.927Z,0.97
2023-03-12T01:41:32.634Z,1.03
2023-03-12T01:44:03.807Z,1.63
2023-03-12T01:46:38.632Z,1.00
2023-03-12T01:49:31.733Z,0.93
2023-03-12T01:52:36.935Z,1.57
2023-03-12T01:55:10.303Z,1.00
2023-03-12T01:57:46.340Z,0.80
2023-03-12T02:00:26.549Z,1.63
2023-03-12T02:03:00.956Z,1.90
2023-03-12T02:05:43.513Z,1.17
2023-03-12T02:08:13.502Z,1.17
2023-03-12T02:10:41.324Z,0.70
2023-03-12T02:13:11.328Z,1.57
2023-03-12T02:15:44.568Z,1.77
2023-03-12T02:18:16.620Z,1.60
2023-03-12T02:21:02.593Z,1.52
2023-03-12T02:23:55.026Z,1.90
2023-03-12T02:26:24.642Z,1.20
2023-03-12T02:28:54.569Z,1.53
2023-03-12T02:31:26.718Z,1.83
2023-03-12T02:33:56.248Z,1.08
2023-03-12T02:36:23.840Z,1.37
2023-03-12T02:38:54.061Z,2.03
2023-03-12T02:41:31.948Z,1.53
2023-03-12T02:44:02.642Z,1.23
2023-03-12T02:46:35.387Z,2.33
2023-03-12T02:49:03.966Z,1.17
2023-03-12T02:51:31.889Z,0.60
2023-03-12T02:53:59.498Z,1.40
2023-03-12T02:56:29.053Z,2.70
2023-03-12T02:58:56.866Z,2.07
2023-03-12T03:01:25.954Z,2.77
2023-03-12T03:03:54.867Z,1.97
2023-03-12T03:06:23.636Z,1.70
2023-03-12T03:08:51.479Z,2.77
2023-03-12T03:11:24.390Z,2.17
2023-03-12T03:13:54.927Z,2.07
2023-03-12T03:16:24.752Z,2.30
2023-03-12T03:18:52.628Z,1.93
2023-03-12T03:21:20.520Z,2.70
2023-03-12T03:23:50.241Z,2.00
2023-03-12T03:26:21.853Z,1.50
2023-03-12T03:28:50.147Z,1.37
2023-03-12T03:31:18.734Z,1.40
2023-03-12T03:33:47.092Z,2.13
2023-03-12T03:36:15.201Z,1.43
2023-03-12T03:39:05.032Z,1.70
2023-03-12T03:41:35.417Z,2.10
2023-03-12T03:44:05.374Z,2.23
2023-03-12T03:46:37.734Z,2.70
2023-03-12T03:49:08.443Z,2.20
2023-03-12T03:51:38.229Z,2.37
2023-03-12T03:54:11.000Z,2.03
2023-03-12T03:56:41.323Z,1.77
2023-03-12T03:59:10.258Z,2.87
2023-03-12T04:01:40.020Z,1.47
2023-03-12T04:04:07.810Z,2.37
2023-03-12T04:06:36.924Z,2.50
2023-03-12T04:09:05.410Z,2.13
2023-03-12T04:11:34.814Z,2.37
2023-03-12T04:14:04.612Z,2.53
2023-03-12T04:16:34.471Z,1.53
2023-03-12T04:19:03.363Z,2.53
2023-03-12T04:21:31.094Z,2.40
2023-03-12T04:23:58.835Z,2.50
2023-03-12T04:26:30.624Z,2.33
2023-03-12T04:28:59.973Z,3.30
2023-03-12T04:31:27.934Z,2.50
2023-03-12T04:33:55.787Z,3.27
2023-03-12T04:36:25.740Z,2.57
2023-03-12T04:38:56.659Z,3.03
2023-03-12T04:41:29.250Z,3.57
2023-03-12T04:44:03.862Z,3.83
2023-03-12T04:46:31.986Z,2.90
2023-03-12T04:49:02.592Z,2.63
2023-03-12T04:51:32.419Z,3.45
2023-03-12T04:54:02.226Z,3.07
2023-03-12T04:56:30.371Z,2.47
2023-03-12T04:58:58.550Z,2.57
2023-03-12T05:01:35.031Z,2.70
2023-03-12T05:04:07.720Z,3.10
2023-03-12T05:06:35.864Z,3.23
2023-03-12T05:09:04.099Z,4.07
2023-03-12T05:11:31.957Z,9.57
2023-03-12T05:13:59.618Z,8.50
2023-03-12T05:16:28.014Z,3.73
2023-03-12T05:18:56.010Z,3.13
2023-03-12T05:21:25.483Z,3.97
2023-03-12T05:23:55.723Z,5.27
2023-03-12T05:26:31.685Z,3.10
2023-03-12T05:29:07.137Z,3.40
2023-03-12T05:31:35.590Z,4.03
2023-03-12T05:34:05.621Z,2.80
2023-03-12T05:36:36.918Z,2.43
2023-03-12T05:39:05.400Z,5.13
2023-03-12T05:41:34.651Z,5.30
2023-03-12T05:44:13.741Z,17.00
2023-03-12T05:46:44.082Z,7.60
2023-03-12T05:49:12.103Z,5.30
2023-03-12T05:51:39.748Z,3.20
2023-03-12T05:54:09.332Z,3.20
2023-03-12T05:56:38.273Z,3.03
2023-03-12T05:59:07.284Z,2.87
2023-03-12T06:01:35.111Z,2.73
2023-03-12T06:04:05.235Z,2.27
2023-03-12T06:06:35.473Z,8.47
2023-03-12T06:09:05.118Z,6.07
2023-03-12T06:11:34.719Z,4.07
2023-03-12T06:14:03.349Z,3.80
2023-03-12T06:16:31.883Z,5.30
2023-03-12T06:19:01.999Z,5.43
2023-03-12T06:21:32.428Z,6.80
2023-03-12T06:24:02.023Z,4.33
2023-03-12T06:26:41.411Z,5.13
2023-03-12T06:29:09.127Z,3.33
2023-03-12T06:31:38.847Z,2.33
2023-03-12T06:34:06.642Z,3.55
2023-03-12T06:36:34.691Z,3.10
2023-03-12T06:39:06.228Z,2.78
2023-03-12T06:41:34.286Z,2.72
2023-03-12T06:44:05.990Z,2.97
2023-03-12T06:46:33.991Z,3.15
2023-03-12T06:49:01.653Z,2.67
2023-03-12T06:51:29.665Z,3.17
2023-03-12T06:53:57.381Z,3.63
2023-03-12T06:56:24.971Z,6.40
2023-03-12T06:58:52.743Z,4.65
2023-03-12T07:01:20.442Z,2.83
2023-03-12T07:03:48.103Z,2.55
2023-03-12T07:06:18.860Z,3.10
2023-03-12T07:08:46.676Z,2.77
2023-03-12T07:11:14.775Z,2.38
2023-03-12T07:13:42.713Z,2.38
2023-03-12T07:16:11.032Z,2.72
2023-03-12T07:18:38.750Z,2.20
2023-03-12T07:21:06.647Z,1.65
2023-03-12T07:23:34.535Z,2.65
2023-03-12T07:26:05.567Z,2.58
2023-03-12T07:28:33.607Z,1.90
2023-03-12T07:31:05.053Z,2.53
2023-03-12T07:33:33.104Z,2.00
2023-03-12T07:36:01.414Z,2.30
2023-03-12T07:38:29.485Z,1.92
2023-03-12T07:40:58.427Z,1.92
2023-03-12T07:43:26.519Z,2.40
2023-03-12T07:45:56.026Z,4.28
2023-03-12T07:48:23.892Z,2.70
2023-03-12T07:50:52.190Z,2.17
2023-03-12T07:53:19.899Z,1.67
2023-03-12T07:55:48.281Z,1.80
2023-03-12T07:58:17.374Z,1.85
2023-03-12T08:00:45.171Z,1.98
2023-03-12T08:03:13.557Z,1.25
2023-03-12T08:05:41.810Z,1.42
2023-03-12T08:08:09.629Z,1.50
2023-03-12T08:10:37.552Z,1.80
2023-03-12T08:13:05.378Z,2.00
2023-03-12T08:15:33.619Z,2.00
2023-03-12T08:18:01.850Z,1.92
2023-03-12T08:20:29.508Z,2.47
2023-03-12T08:22:57.148Z,2.22
2023-03-12T08:25:24.938Z,2.35
2023-03-12T08:27:53.188Z,2.00
2023-03-12T08:30:21.201Z,2.08
2023-03-12T08:32:48.818Z,1.65
2023-03-12T08:35:16.617Z,1.90
2023-03-12T08:37:44.390Z,2.13
2023-03-12T08:40:15.236Z,1.75
2023-03-12T08:42:44.245Z,1.58
2023-03-12T08:45:12.958Z,1.75
2023-03-12T08:47:41.914Z,1.60
2023-03-12T08:50:14.960Z,1.63
2023-03-12T08:52:43.211Z,1.23
2023-03-12T08:55:12.525Z,1.35
2023-03-12T08:57:40.253Z,1.48
2023-03-12T09:00:11.636Z,1.55
2023-03-12T09:02:39.334Z,1.35
2023-03-12T09:05:07.692Z,1.00
2023-03-12T09:07:35.666Z,1.08
2023-03-12T09:10:03.902Z,1.10
2023-03-12T09:12:31.997Z,0.65
2023-03-12T09:15:04.514Z,0.65
2023-03-12T09:20:00.952Z,1.23
2023-03-12T09:22:30.557Z,1.35
2023-03-12T09:24:58.297Z,1.45
2023-03-12T09:27:25.926Z,0.90
2023-03-12T09:30:00.562Z,0.93
2023-03-12T09:32:30.148Z,1.30
2023-03-12T09:34:58.242Z,1.45
2023-03-12T09:37:26.398Z,0.70
2023-03-12T09:39:54.566Z,0.80
2023-03-12T09:42:47.337Z,0.60
2023-03-12T09:45:21.214Z,0.80
2023-03-12T09:47:52.812Z,1.45
2023-03-12T09:50:31.804Z,1.58
2023-03-12T09:53:11.074Z,0.90
2023-03-12T09:55:42.358Z,0.60
2023-03-12T09:58:22.136Z,0.52
2023-03-12T10:00:50.068Z,0.55
2023-03-12T10:03:44.131Z,0.70
2023-03-12T10:06:20.506Z,0.52
2023-03-12T10:09:11.042Z,1.88
2023-03-12T10:11:47.717Z,0.70
2023-03-12T10:14:39.452Z,0.60
2023-03-12T10:17:43.155Z,0.55
2023-03-12T10:20:47.730Z,0.50
2023-03-12T10:23:50.123Z,0.60
2023-03-12T10:26:25.768Z,0.40
2023-03-12T10:29:02.030Z,0.30
2023-03-12T10:31:38.243Z,1.13
2023-03-12T10:34:17.549Z,1.10
2023-03-12T10:36:47.008Z,0.82
2023-03-12T10:39:17.472Z,1.48
2023-03-12T10:41:46.994Z,1.58
2023-03-12T10:44:21.498Z,1.27
2023-03-12T10:47:00.905Z,2.15
2023-03-12T10:49:35.033Z,0.88
2023-03-12T10:52:07.141Z,0.63
2023-03-12T10:54:38.060Z,0.50
2023-03-12T10:57:06.705Z,0.45
2023-03-12T10:59:37.280Z,0.68
2023-03-12T11:02:24.999Z,0.47
2023-03-12T11:04:53.847Z,0.90
2023-03-12T11:07:30.156Z,2.22
2023-03-12T11:10:37.417Z,1.10
2023-03-12T11:13:27.119Z,0.82
2023-03-12T11:15:56.797Z,0.57
2023-03-12T11:18:32.710Z,0.47
2023-03-12T11:21:09.543Z,0.93
2023-03-12T11:23:40.936Z,0.43
2023-03-12T11:26:17.094Z,0.30
2023-03-12T11:28:49.107Z,1.35
2023-03-12T11:31:36.255Z,0.85
2023-03-12T11:34:08.312Z,0.75
2023-03-12T11:36:59.219Z,1.17
2023-03-12T11:39:37.489Z,0.70
2023-03-12T11:42:17.729Z,0.93
2023-03-12T11:44:56.927Z,0.50
2023-03-12T11:47:33.346Z,1.90
2023-03-12T11:50:22.310Z,2.15
2023-03-12T11:53:08.699Z,1.20
2023-03-12T11:55:45.315Z,0.82
2023-03-12T11:58:24.965Z,1.20
2023-03-12T12:01:00.889Z,1.85
2023-03-12T12:03:46.822Z,1.30
2023-03-12T12:06:36.237Z,1.55
2023-03-12T12:09:13.131Z,2.60
2023-03-12T12:11:46.942Z,2.03
2023-03-12T12:14:59.060Z,2.17
2023-03-12T12:18:20.831Z,2.13
2023-03-12T12:21:10.765Z,1.30
2023-03-12T12:24:03.884Z,2.30
2023-03-12T12:29:51.596Z,3.40
2023-03-12T12:35:26.656Z,1.42
2023-03-12T12:38:10.404Z,1.63
2023-03-12T12:40:42.950Z,3.58
2023-03-12T12:43:33.632Z,2.33
2023-03-12T12:46:06.916Z,2.22
2023-03-12T12:48:43.528Z,1.58
2023-03-12T12:51:13.187Z,2.70
2023-03-12T12:53:54.383Z,3.03
2023-03-12T12:56:50.933Z,3.03
2023-03-12T12:59:27.700Z,2.03
2023-03-12T13:01:57.307Z,2.17
2023-03-12T13:04:32.890Z,2.17
2023-03-12T13:07:11.751Z,1.85
2023-03-12T13:09:47.049Z,1.13
2023-03-12T13:12:55.356Z,1.40
2023-03-12T13:15:29.438Z,1.70
2023-03-12T13:18:00.150Z,2.30
2023-03-12T13:20:55.270Z,1.98
2023-03-12T13:23:41.098Z,1.90
2023-03-12T13:26:17.894Z,2.80
2023-03-12T13:29:06.207Z,4.47
2023-03-12T13:31:41.796Z,3.35
2023-03-12T13:34:19.753Z,3.20
2023-03-12T13:36:51.875Z,2.08
2023-03-12T13:39:32.148Z,1.52
2023-03-12T13:42:23.946Z,3.03
2023-03-12T13:44:53.541Z,2.22
2023-03-12T13:47:30.633Z,2.00
2023-03-12T13:50:06.523Z,1.80
2023-03-12T13:52:40.812Z,2.20
2023-03-12T13:55:14.981Z,2.08
2023-03-12T13:57:50.745Z,2.05
2023-03-12T14:00:40.182Z,1.80
2023-03-12T14:03:27.919Z,2.80
2023-03-12T14:06:14.018Z,3.60
2023-03-12T14:09:15.865Z,2.58
2023-03-12T14:12:05.077Z,4.30
2023-03-12T14:14:41.581Z,3.40
2023-03-12T14:17:24.375Z,2.58
2023-03-12T14:20:12.910Z,2.88
2023-03-12T14:22:44.973Z,3.15
2023-03-12T14:25:33.698Z,2.67
2023-03-12T14:28:03.631Z,2.25
2023-03-12T14:30:55.851Z,2.88
2023-03-12T14:33:26.097Z,2.70
2023-03-12T14:36:16.818Z,2.10
2023-03-12T14:38:47.449Z,4.03
2023-03-12T14:41:34.560Z,2.33
2023-03-12T14:44:27.026Z,1.65
2023-03-12T14:47:12.803Z,10.10
2023-03-12T14:49:46.050Z,3.28
2023-03-12T14:52:20.687Z,17.63
2023-03-12T14:54:58.199Z,3.38
2023-03-12T14:57:26.483Z,4.07
2023-03-12T14:59:59.343Z,5.07
2023-03-12T15:02:30.791Z,5.05
2023-03-12T15:05:02.098Z,6.68
2023-03-12T15:07:34.721Z,8.27
2023-03-12T15:10:07.694Z,4.40
2023-03-12T15:12:37.955Z,12.35
2023-03-12T15:15:09.655Z,6.93
2023-03-12T15:17:38.124Z,5.20
2023-03-12T15:20:09.556Z,6.68
2023-03-12T15:22:38.173Z,4.10
2023-03-12T15:25:23.730Z,4.22
2023-03-12T15:28:26.849Z,5.20
2023-03-12T15:31:18.234Z,5.13
2023-03-12T15:33:59.563Z,2.58
2023-03-12T15:36:29.378Z,4.85
2023-03-12T15:39:14.287Z,3.40
2023-03-12T15:41:49.922Z,4.03
2023-03-12T15:44:24.153Z,2.60
2023-03-12T15:47:17.668Z,2.38
2023-03-12T15:50:04.129Z,2.50
2023-03-12T15:52:36.710Z,4.90
2023-03-12T15:55:23.499Z,6.22
2023-03-12T15:57:55.378Z,2.70
2023-03-12T16:00:31.296Z,2.05
2023-03-12T16:03:07.209Z,5.13
2023-03-12T16:05:40.279Z,6.95
2023-03-12T16:08:26.253Z,5.93
2023-03-12T16:10:56.395Z,6.32
2023-03-12T16:13:32.056Z,5.18
2023-03-12T16:16:02.725Z,3.15
2023-03-12T16:18:31.240Z,2.35
2023-03-12T16:21:00.352Z,2.33
2023-03-12T16:23:28.899Z,3.97
2023-03-12T16:25:58.995Z,5.00
2023-03-12T16:28:27.576Z,3.58
2023-03-12T16:30:55.522Z,4.03
2023-03-12T16:33:25.364Z,4.82
2023-03-12T16:35:54.296Z,5.38
2023-03-12T16:38:22.737Z,5.00
2023-03-12T16:40:53.170Z,5.07
2023-03-12T16:43:24.769Z,5.85
2023-03-12T16:45:55.582Z,58.35
2023-03-12T16:48:24.964Z,17.55
2023-03-12T16:50:56.731Z,9.05
2023-03-12T16:53:27.345Z,21.00
2023-03-12T16:55:58.753Z,7.82
2023-03-12T16:58:28.762Z,14.98
2023-03-12T17:01:00.219Z,10.82
2023-03-12T17:03:37.977Z,12.97
2023-03-12T17:06:08.635Z,13.90
2023-03-12T17:08:37.056Z,10.77
2023-03-12T17:11:21.114Z,13.85
2023-03-12T17:14:00.197Z,20.10
2023-03-12T17:16:28.841Z,23.77
2023-03-12T17:18:57.268Z,19.95
2023-03-12T17:21:26.105Z,21.73
2023-03-12T17:23:55.298Z,21.42
2023-03-12T17:26:25.365Z,12.00
2023-03-12T17:28:54.421Z,10.70
2023-03-12T17:31:25.180Z,13.07
2023-03-12T17:33:53.932Z,11.55
2023-03-12T17:36:26.200Z,13.27
2023-03-12T17:38:55.427Z,16.45
2023-03-12T17:41:27.170Z,16.42
2023-03-12T17:43:59.309Z,17.33
2023-03-12T17:46:28.693Z,16.27
2023-03-12T17:48:57.765Z,16.00
2023-03-12T17:51:26.597Z,15.32
2023-03-12T17:53:55.526Z,17.48
2023-03-12T17:56:24.493Z,13.23
2023-03-12T17:58:54.860Z,9.43
2023-03-12T18:01:22.745Z,7.82
2023-03-12T18:03:51.753Z,9.15
2023-03-12T18:06:20.672Z,10.48
2023-03-12T18:08:49.320Z,13.85
2023-03-12T18:11:17.516Z,19.20
2023-03-12T18:13:48.986Z,29.55
2023-03-12T18:16:18.264Z,20.70
2023-03-12T18:18:47.386Z,44.42
2023-03-12T18:21:17.990Z,33.35
2023-03-12T18:23:48.399Z,27.92
2023-03-12T18:26:17.004Z,21.20
2023-03-12T18:28:45.871Z,21.63
2023-03-12T18:31:16.115Z,22.10
2023-03-12T18:33:47.490Z,17.65
2023-03-12T18:36:21.312Z,12.60
2023-03-12T18:38:50.668Z,10.07
2023-03-12T18:41:20.248Z,19.40
2023-03-12T18:43:49.315Z,10.68
2023-03-12T18:46:19.774Z,10.18
2023-03-12T18:48:53.600Z,9.85
2023-03-12T18:51:22.726Z,17.88
2023-03-12T18:53:51.092Z,16.83
2023-03-12T18:56:20.122Z,13.00
2023-03-12T18:58:49.398Z,11.70
2023-03-12T19:01:18.263Z,12.02
2023-03-12T19:03:50.444Z,9.70
2023-03-12T19:06:19.770Z,11.38
2023-03-12T19:08:48.865Z,24.17
2023-03-12T19:11:18.225Z,29.85
2023-03-12T19:13:53.189Z,37.13
2023-03-12T19:16:22.469Z,39.17
2023-03-12T19:18:52.484Z,35.40
2023-03-12T19:21:24.500Z,34.38
2023-03-12T19:23:53.864Z,50.58
2023-03-12T19:26:24.392Z,57.40
2023-03-12T19:28:53.167Z,57.63
2023-03-12T19:31:21.846Z,56.45
2023-03-12T19:33:52.574Z,44.80
2023-03-12T19:36:21.650Z,39.30
2023-03-12T19:38:50.485Z,30.27
2023-03-12T19:41:19.830Z,28.00
2023-03-12T19:43:49.459Z,23.77
2023-03-12T19:46:20.556Z,14.02
2023-03-12T19:48:51.672Z,9.27
2023-03-12T19:51:21.044Z,10.57
2023-03-12T19:53:49.933Z,8.13
2023-03-12T19:56:20.186Z,8.65
2023-03-12T19:58:49.618Z,5.68
2023-03-12T20:01:20.007Z,4.80
2023-03-12T20:03:48.849Z,3.42
2023-03-12T20:06:18.816Z,3.90
2023-03-12T20:08:49.817Z,5.43
2023-03-12T20:11:18.599Z,8.93
2023-03-12T20:13:48.141Z,11.52
2023-03-12T20:16:18.005Z,12.43
2023-03-12T20:18:48.317Z,12.98
2023-03-12T20:21:17.524Z,13.93
2023-03-12T20:23:45.942Z,12.30
2023-03-12T20:26:15.275Z,14.13
2023-03-12T20:28:44.840Z,13.95
2023-03-12T20:31:17.560Z,13.52
2023-03-12T20:33:46.749Z,17.13
2023-03-12T20:36:15.920Z,15.75
2023-03-12T20:38:44.899Z,16.92
2023-03-12T20:41:15.600Z,19.58
2023-03-12T20:43:45.696Z,17.27
2023-03-12T20:46:14.452Z,17.58
2023-03-12T20:48:43.886Z,17.00
2023-03-12T20:51:12.402Z,16.65
2023-03-12T20:53:42.793Z,15.93
2023-03-12T20:56:11.621Z,11.90
2023-03-12T20:58:40.389Z,13.77
2023-03-12T21:01:10.255Z,7.50
2023-03-12T21:03:38.616Z,7.40
2023-03-12T21:06:07.193Z,4.63
2023-03-12T21:08:35.863Z,2.80
2023-03-12T21:11:12.685Z,3.67
2023-03-12T21:13:42.981Z,3.88
2023-03-12T21:16:12.602Z,4.68
2023-03-12T21:18:40.536Z,5.80
2023-03-12T21:21:09.685Z,6.05
2023-03-12T21:23:38.963Z,5.35
2023-03-12T21:26:09.485Z,5.95
2023-03-12T21:28:37.864Z,5.00
2023-03-12T21:31:15.388Z,5.18
2023-03-12T21:33:45.121Z,6.57
2023-03-12T21:36:14.464Z,8.07
2023-03-12T21:38:43.369Z,8.13
2023-03-12T21:41:16.832Z,5.22
2023-03-12T21:43:45.545Z,6.22
2023-03-12T21:46:26.859Z,6.03
2023-03-12T21:48:54.948Z,7.28
2023-03-12T21:51:26.025Z,16.33
2023-03-12T21:53:55.377Z,23.27
2023-03-12T21:56:26.511Z,20.30
2023-03-12T21:58:59.772Z,11.18
2023-03-12T22:01:27.949Z,10.88
2023-03-12T22:03:55.834Z,10.88
2023-03-12T22:06:23.579Z,9.70
2023-03-12T22:08:52.462Z,10.57
2023-03-12T22:11:20.182Z,9.75
2023-03-12T22:13:48.749Z,8.45
2023-03-12T22:16:17.053Z,8.65
2023-03-12T22:18:46.730Z,8.52
2023-03-12T22:21:25.215Z,7.05
2023-03-12T22:23:57.622Z,6.38
2023-03-12T22:26:25.822Z,6.28
2023-03-12T22:29:02.178Z,5.80
2023-03-12T22:31:30.786Z,4.75
2023-03-12T22:33:58.591Z,4.53
2023-03-12T22:36:26.679Z,4.65
2023-03-12T22:38:54.285Z,4.80
2023-03-12T22:44:18.095Z,4.28
2023-03-12T22:46:45.859Z,5.50
2023-03-12T22:49:15.285Z,5.25
2023-03-12T22:51:42.959Z,4.93
2023-03-12T22:54:10.551Z,4.90
2023-03-12T22:56:38.278Z,6.63
2023-03-12T22:59:06.002Z,5.70
2023-03-12T23:01:33.797Z,7.28
2023-03-12T23:04:04.079Z,8.50
2023-03-12T23:06:32.187Z,8.77
2023-03-12T23:08:59.925Z,11.70
2023-03-12T23:11:29.642Z,12.75
2023-03-12T23:13:57.363Z,12.70
2023-03-12T23:16:26.461Z,15.70
2023-03-12T23:18:55.354Z,13.00
2023-03-12T23:21:24.285Z,14.55
2023-03-12T23:23:52.000Z,10.27
2023-03-12T23:26:26.719Z,9.70
2023-03-12T23:28:58.899Z,7.47
2023-03-12T23:31:28.549Z,7.65
2023-03-12T23:33:57.364Z,6.47
2023-03-12T23:36:25.268Z,6.10
2023-03-12T23:38:53.004Z,5.75
2023-03-12T23:41:26.141Z,6.35
2023-03-12T23:43:54.017Z,6.18
2023-03-12T23:46:22.061Z,6.55
2023-03-12T23:48:50.635Z,9.00
2023-03-12T23:51:21.069Z,7.45
2023-03-12T23:53:51.052Z,8.55
2023-03-12T23:56:21.956Z,7.93
2023-03-12T23:58:50.815Z,7.78
